createdAt,value
2023-10-07T06:18:26.192Z,1016.87
2023-10-07T06:19:26.123Z,1016.86
2023-10-07T06:20:26.113Z,1016.90
2023-10-07T06:21:26.103Z,1016.86
2023-10-07T06:22:26.095Z,1016.85
2023-10-07T06:23:26.296Z,1016.93
2023-10-07T06:24:26.099Z,1016.90
2023-10-07T06:25:26.055Z,1016.89
2023-10-07T06:26:26.046Z,1016.89
2023-10-07T06:27:26.037Z,1016.90
2023-10-07T06:28:26.022Z,1016.92
2023-10-07T06:29:26.010Z,1016.95
2023-10-07T06:30:26.016Z,1016.97
2023-10-07T06:31:26.072Z,1016.98
2023-10-07T06:32:26.076Z,1016.99
2023-10-07T06:33:25.966Z,1016.99
2023-10-07T06:34:25.980Z,1017.00
2023-10-07T06:35:25.947Z,1016.99
2023-10-07T06:36:26.081Z,1017.01
2023-10-07T06:37:25.920Z,1017.00
2023-10-07T06:38:25.909Z,1017.04
2023-10-07T06:39:25.897Z,1017.01
2023-10-07T06:40:25.895Z,1016.98
2023-10-07T06:41:25.885Z,1017.02
2023-10-07T06:42:25.891Z,1017.04
2023-10-07T06:43:25.850Z,1017.07
2023-10-07T06:44:25.894Z,1017.09
2023-10-07T06:45:25.829Z,1017.10
2023-10-07T06:46:25.876Z,1017.12
2023-10-07T06:47:25.828Z,1017.09
2023-10-07T06:48:25.821Z,1017.12
2023-10-07T06:49:25.839Z,1017.12
2023-10-07T06:50:25.799Z,1017.13
2023-10-07T06:51:25.760Z,1017.15
2023-10-07T06:52:25.752Z,1017.16
2023-10-07T06:53:25.754Z,1017.19
2023-10-07T06:54:25.750Z,1017.18
2023-10-07T06:55:25.726Z,1017.16
2023-10-07T06:56:25.713Z,1017.12
2023-10-07T06:57:25.695Z,1017.11
2023-10-07T06:58:25.688Z,1017.06
2023-10-07T06:59:25.669Z,1017.07
2023-10-07T07:00:25.691Z,1017.14
2023-10-07T07:01:25.657Z,1017.16
2023-10-07T07:02:25.710Z,1017.16
2023-10-07T07:03:25.677Z,1017.13
2023-10-07T07:04:25.902Z,1017.15
2023-10-07T07:05:25.604Z,1017.16
2023-10-07T07:06:25.629Z,1017.15
2023-10-07T07:07:25.574Z,1017.17
2023-10-07T07:08:25.625Z,1017.17
2023-10-07T07:09:25.549Z,1017.17
2023-10-07T07:10:25.542Z,1017.20
2023-10-07T07:11:25.530Z,1017.20
2023-10-07T07:12:25.536Z,1017.19
2023-10-07T07:13:25.519Z,1017.21
2023-10-07T07:14:25.515Z,1017.23
2023-10-07T07:15:25.481Z,1017.24
2023-10-07T07:16:25.479Z,1017.22
2023-10-07T07:17:25.616Z,1017.18
2023-10-07T07:18:25.465Z,1017.19
2023-10-07T07:19:25.433Z,1017.16
2023-10-07T07:20:25.432Z,1017.16
2023-10-07T07:21:25.411Z,1017.17
2023-10-07T07:22:25.428Z,1017.22
2023-10-07T07:23:25.397Z,1017.27
2023-10-07T07:24:25.398Z,1017.21
2023-10-07T07:25:25.399Z,1017.24
2023-10-07T07:26:25.359Z,1017.28
2023-10-07T07:27:25.344Z,1017.30
2023-10-07T07:28:25.330Z,1017.31
2023-10-07T07:29:25.367Z,1017.33
2023-10-07T07:30:25.332Z,1017.38
2023-10-07T07:31:25.371Z,1017.40
2023-10-07T07:32:25.300Z,1017.42
2023-10-07T07:33:25.272Z,1017.43
2023-10-07T07:34:25.265Z,1017.43
2023-10-07T07:35:25.249Z,1017.36
2023-10-07T07:36:25.284Z,1017.39
2023-10-07T07:37:25.226Z,1017.36
2023-10-07T07:38:25.284Z,1017.31
2023-10-07T07:39:25.207Z,1017.30
2023-10-07T07:40:25.195Z,1017.24
2023-10-07T07:41:25.187Z,1017.25
2023-10-07T07:42:25.198Z,1017.18
2023-10-07T07:43:25.165Z,1017.23
2023-10-07T07:44:25.205Z,1017.23
2023-10-07T07:45:25.153Z,1017.22
2023-10-07T07:46:25.144Z,1017.23
2023-10-07T07:47:25.242Z,1017.27
2023-10-07T07:48:25.213Z,1017.31
2023-10-07T07:49:25.095Z,1017.29
2023-10-07T07:50:25.101Z,1017.25
2023-10-07T07:51:25.075Z,1017.27
2023-10-07T07:52:25.066Z,1017.24
2023-10-07T07:53:25.055Z,1017.21
2023-10-07T07:54:25.089Z,1017.18
2023-10-07T07:55:26.189Z,1017.22
2023-10-07T07:56:25.017Z,1017.17
2023-10-07T07:57:25.007Z,1017.16
2023-10-07T07:58:24.993Z,1017.18
2023-10-07T07:59:25.034Z,1017.20
2023-10-07T08:00:24.990Z,1017.20
2023-10-07T08:01:24.954Z,1017.17
2023-10-07T08:02:25.018Z,1017.21
2023-10-07T08:03:25.021Z,1017.23
2023-10-07T08:04:25.089Z,1017.22
2023-10-07T08:05:24.984Z,1017.18
2023-10-07T08:06:24.918Z,1017.14
2023-10-07T08:07:24.893Z,1017.13
2023-10-07T08:08:24.883Z,1017.14
2023-10-07T08:09:24.864Z,1017.14
2023-10-07T08:10:24.997Z,1017.18
2023-10-07T08:11:24.845Z,1017.20
2023-10-07T08:12:24.848Z,1017.25
2023-10-07T08:13:24.834Z,1017.28
2023-10-07T08:14:24.815Z,1017.25
2023-10-07T08:15:24.845Z,1017.29
2023-10-07T08:16:24.805Z,1017.28
2023-10-07T08:17:24.833Z,1017.27
2023-10-07T08:18:24.865Z,1017.27
2023-10-07T08:19:24.753Z,1017.27
2023-10-07T08:20:24.785Z,1017.25
2023-10-07T08:21:24.729Z,1017.27
2023-10-07T08:22:24.722Z,1017.27
2023-10-07T08:23:24.704Z,1017.37
2023-10-07T08:24:24.715Z,1017.37
2023-10-07T08:25:24.685Z,1017.39
2023-10-07T08:26:24.750Z,1017.39
2023-10-07T08:27:24.659Z,1017.37
2023-10-07T08:28:24.647Z,1017.28
2023-10-07T08:29:24.646Z,1017.27
2023-10-07T08:30:24.651Z,1017.30
2023-10-07T08:31:24.637Z,1017.34
2023-10-07T08:32:24.655Z,1017.35
2023-10-07T08:33:24.608Z,1017.40
2023-10-07T08:34:24.587Z,1017.36
2023-10-07T08:35:24.622Z,1017.30
2023-10-07T08:36:24.583Z,1017.26
2023-10-07T08:37:24.543Z,1017.26
2023-10-07T08:38:24.534Z,1017.27
2023-10-07T08:39:24.520Z,1017.31
2023-10-07T08:40:24.512Z,1017.32
2023-10-07T08:41:24.493Z,1017.35
2023-10-07T08:42:24.532Z,1017.38
2023-10-07T08:43:24.477Z,1017.38
2023-10-07T08:44:24.540Z,1017.34
2023-10-07T08:45:24.494Z,1017.35
2023-10-07T08:46:24.475Z,1017.34
2023-10-07T08:47:24.673Z,1017.37
2023-10-07T08:48:24.514Z,1017.30
2023-10-07T08:49:24.407Z,1017.28
2023-10-07T08:50:24.406Z,1017.28
2023-10-07T08:51:24.394Z,1017.24
2023-10-07T08:52:24.384Z,1017.33
2023-10-07T08:53:24.379Z,1017.26
2023-10-07T08:54:24.373Z,1017.26
2023-10-07T08:55:24.344Z,1017.25
2023-10-07T08:56:24.330Z,1017.23
2023-10-07T08:57:24.316Z,1017.24
2023-10-07T08:58:24.333Z,1017.27
2023-10-07T08:59:24.296Z,1017.25
2023-10-07T09:00:24.305Z,1017.26
2023-10-07T09:01:24.307Z,1017.28
2023-10-07T09:02:24.275Z,1017.24
2023-10-07T09:03:24.324Z,1017.30
2023-10-07T09:04:24.240Z,1017.26
2023-10-07T09:05:24.284Z,1017.30
2023-10-07T09:06:24.243Z,1017.27
2023-10-07T09:07:24.201Z,1017.28
2023-10-07T09:08:24.266Z,1017.24
2023-10-07T09:09:24.181Z,1017.25
2023-10-07T09:10:24.195Z,1017.23
2023-10-07T09:11:24.189Z,1017.21
2023-10-07T09:12:24.174Z,1017.21
2023-10-07T09:13:24.135Z,1017.20
2023-10-07T09:14:24.205Z,1017.17
2023-10-07T09:15:24.114Z,1017.23
2023-10-07T09:16:24.139Z,1017.21
2023-10-07T09:17:24.167Z,1017.21
2023-10-07T09:18:24.215Z,1017.16
2023-10-07T09:19:24.069Z,1017.20
2023-10-07T09:20:24.114Z,1017.15
2023-10-07T09:21:24.054Z,1017.14
2023-10-07T09:22:24.036Z,1017.13
2023-10-07T09:23:24.063Z,1017.18
2023-10-07T09:24:24.037Z,1017.13
2023-10-07T09:25:24.008Z,1017.23
2023-10-07T09:26:24.094Z,1017.25
2023-10-07T09:27:23.977Z,1017.26
2023-10-07T09:28:23.967Z,1017.23
2023-10-07T09:29:23.988Z,1017.29
2023-10-07T09:30:24.011Z,1017.28
2023-10-07T09:31:23.983Z,1017.27
2023-10-07T09:32:24.155Z,1017.24
2023-10-07T09:33:23.911Z,1017.25
2023-10-07T09:34:23.902Z,1017.26
2023-10-07T09:35:23.974Z,1017.25
2023-10-07T09:36:23.908Z,1017.23
2023-10-07T09:37:23.862Z,1017.20
2023-10-07T09:38:23.944Z,1017.21
2023-10-07T09:39:23.840Z,1017.25
2023-10-07T09:40:23.833Z,1017.29
2023-10-07T09:41:23.862Z,1017.28
2023-10-07T09:42:23.828Z,1017.27
2023-10-07T09:43:23.803Z,1017.27
2023-10-07T09:44:23.800Z,1017.27
2023-10-07T09:45:23.780Z,1017.26
2023-10-07T09:46:34.887Z,1017.27
2023-10-07T09:47:24.859Z,1017.26
2023-10-07T09:48:23.817Z,1017.30
2023-10-07T09:49:23.729Z,1017.28
2023-10-07T09:50:23.756Z,1017.24
2023-10-07T09:51:23.709Z,1017.29
2023-10-07T09:52:23.696Z,1017.22
2023-10-07T09:53:23.737Z,1017.22
2023-10-07T09:54:23.847Z,1017.22
2023-10-07T09:55:23.665Z,1017.22
2023-10-07T09:56:23.681Z,1017.25
2023-10-07T09:57:23.680Z,1017.25
2023-10-07T09:58:23.627Z,1017.22
2023-10-07T09:59:23.655Z,1017.25
2023-10-07T10:00:23.603Z,1017.26
2023-10-07T10:01:23.644Z,1017.28
2023-10-07T10:02:23.766Z,1017.22
2023-10-07T10:03:23.797Z,1017.20
2023-10-07T10:04:23.603Z,1017.21
2023-10-07T10:05:23.652Z,1017.24
2023-10-07T10:06:23.537Z,1017.22
2023-10-07T10:07:23.525Z,1017.15
2023-10-07T10:08:23.565Z,1017.23
2023-10-07T10:09:23.503Z,1017.26
2023-10-07T10:10:23.495Z,1017.25
2023-10-07T10:11:23.528Z,1017.23
2023-10-07T10:12:23.476Z,1017.21
2023-10-07T10:13:23.455Z,1017.14
2023-10-07T10:14:23.937Z,1017.07
2023-10-07T10:15:23.436Z,1017.13
2023-10-07T10:16:23.474Z,1017.13
2023-10-07T10:17:23.538Z,1017.14
2023-10-07T10:18:23.430Z,1017.12
2023-10-07T10:19:23.393Z,1017.10
2023-10-07T10:20:23.410Z,1017.04
2023-10-07T10:21:23.367Z,1017.06
2023-10-07T10:22:23.404Z,1017.05
2023-10-07T10:23:23.411Z,1017.00
2023-10-07T10:24:23.342Z,1017.03
2023-10-07T10:25:23.324Z,1016.97
2023-10-07T10:26:23.408Z,1017.04
2023-10-07T10:27:23.321Z,1016.99
2023-10-07T10:28:23.292Z,1016.94
2023-10-07T10:29:23.327Z,1016.89
2023-10-07T10:30:23.269Z,1016.89
2023-10-07T10:31:23.284Z,1016.95
2023-10-07T10:32:23.285Z,1016.86
2023-10-07T10:33:23.263Z,1016.92
2023-10-07T10:34:23.247Z,1016.93
2023-10-07T10:35:23.290Z,1016.88
2023-10-07T10:36:23.201Z,1016.90
2023-10-07T10:37:23.195Z,1016.88
2023-10-07T10:38:23.243Z,1016.90
2023-10-07T10:39:37.185Z,1016.91
2023-10-07T10:40:24.187Z,1016.91
2023-10-07T10:41:23.199Z,1016.94
2023-10-07T10:42:23.135Z,1016.93
2023-10-07T10:43:23.124Z,1016.94
2023-10-07T10:44:23.173Z,1016.90
2023-10-07T10:45:23.123Z,1016.93
2023-10-07T10:46:23.132Z,1016.92
2023-10-07T10:47:23.139Z,1016.93
2023-10-07T10:48:23.093Z,1016.88
2023-10-07T10:49:23.068Z,1016.92
2023-10-07T10:50:23.082Z,1016.90
2023-10-07T10:51:23.034Z,1016.89
2023-10-07T10:52:23.042Z,1016.88
2023-10-07T10:53:23.041Z,1016.86
2023-10-07T10:54:23.003Z,1016.84
2023-10-07T10:55:22.992Z,1016.79
2023-10-07T10:56:23.029Z,1016.82
2023-10-07T10:57:22.968Z,1016.85
2023-10-07T10:58:22.973Z,1016.85
2023-10-07T10:59:23.000Z,1016.85
2023-10-07T11:00:23.057Z,1016.81
2023-10-07T11:01:22.959Z,1016.83
2023-10-07T11:02:22.996Z,1016.84
2023-10-07T11:03:23.370Z,1016.88
2023-10-07T11:04:22.916Z,1016.82
2023-10-07T11:05:23.073Z,1016.86
2023-10-07T11:06:23.044Z,1016.88
2023-10-07T11:07:22.888Z,1016.88
2023-10-07T11:08:22.914Z,1016.94
2023-10-07T11:09:22.835Z,1016.92
2023-10-07T11:10:22.843Z,1016.87
2023-10-07T11:11:22.856Z,1016.91
2023-10-07T11:12:22.805Z,1016.88
2023-10-07T11:13:22.790Z,1016.85
2023-10-07T11:14:22.818Z,1016.79
2023-10-07T11:15:22.771Z,1016.83
2023-10-07T11:16:22.829Z,1016.83
2023-10-07T11:17:22.808Z,1016.80
2023-10-07T11:18:22.739Z,1016.79
2023-10-07T11:19:22.726Z,1016.79
2023-10-07T11:20:22.785Z,1016.73
2023-10-07T11:21:22.864Z,1016.75
2023-10-07T11:22:22.758Z,1016.79
2023-10-07T11:23:24.666Z,1016.70
2023-10-07T11:24:22.667Z,1016.72
2023-10-07T11:25:22.661Z,1016.73
2023-10-07T11:26:22.659Z,1016.74
2023-10-07T11:27:22.636Z,1016.74
2023-10-07T11:28:22.648Z,1016.73
2023-10-07T11:29:22.656Z,1016.69
2023-10-07T11:30:22.609Z,1016.73
2023-10-07T11:31:22.611Z,1016.70
2023-10-07T11:32:22.662Z,1016.65
2023-10-07T11:33:22.707Z,1016.67
2023-10-07T11:34:22.585Z,1016.64
2023-10-07T11:35:22.647Z,1016.68
2023-10-07T11:36:22.543Z,1016.62
2023-10-07T11:37:22.528Z,1016.63
2023-10-07T11:38:22.636Z,1016.66
2023-10-07T11:39:22.505Z,1016.68
2023-10-07T11:40:22.517Z,1016.65
2023-10-07T11:41:23.486Z,1016.64
2023-10-07T11:42:22.469Z,1016.68
2023-10-07T11:43:22.460Z,1016.68
2023-10-07T11:44:22.483Z,1016.65
2023-10-07T11:45:22.441Z,1016.63
2023-10-07T11:46:22.529Z,1016.68
2023-10-07T11:47:22.479Z,1016.63
2023-10-07T11:48:22.406Z,1016.71
2023-10-07T11:49:22.393Z,1016.76
2023-10-07T11:50:22.434Z,1016.70
2023-10-07T11:51:22.371Z,1016.69
2023-10-07T11:52:22.381Z,1016.67
2023-10-07T11:53:22.368Z,1016.70
2023-10-07T11:54:22.363Z,1016.67
2023-10-07T11:55:22.330Z,1016.76
2023-10-07T11:56:22.353Z,1016.72
2023-10-07T11:57:22.304Z,1016.72
2023-10-07T11:58:22.319Z,1016.69
2023-10-07T11:59:22.320Z,1016.68
2023-10-07T12:00:22.274Z,1016.63
2023-10-07T12:01:22.298Z,1016.62
2023-10-07T12:02:22.296Z,1016.63
2023-10-07T12:03:22.357Z,1016.61
2023-10-07T12:04:22.301Z,1016.59
2023-10-07T12:05:22.286Z,1016.54
2023-10-07T12:06:22.207Z,1016.58
2023-10-07T12:07:22.206Z,1016.52
2023-10-07T12:08:22.216Z,1016.52
2023-10-07T12:09:22.173Z,1016.49
2023-10-07T12:10:22.198Z,1016.51
2023-10-07T12:11:22.185Z,1016.53
2023-10-07T12:12:22.185Z,1016.49
2023-10-07T12:13:23.310Z,1016.44
2023-10-07T12:14:22.143Z,1016.44
2023-10-07T12:15:22.126Z,1016.45
2023-10-07T12:16:22.133Z,1016.45
2023-10-07T12:17:22.133Z,1016.49
2023-10-07T12:18:22.091Z,1016.47
2023-10-07T12:19:22.063Z,1016.45
2023-10-07T12:20:22.112Z,1016.44
2023-10-07T12:21:22.056Z,1016.46
2023-10-07T12:22:22.030Z,1016.49
2023-10-07T12:23:22.074Z,1016.51
2023-10-07T12:24:22.006Z,1016.47
2023-10-07T12:25:22.003Z,1016.49
2023-10-07T12:26:22.045Z,1016.47
2023-10-07T12:27:21.992Z,1016.50
2023-10-07T12:28:21.973Z,1016.48
2023-10-07T12:29:21.991Z,1016.50
2023-10-07T12:30:21.943Z,1016.51
2023-10-07T12:31:21.960Z,1016.48
2023-10-07T12:32:21.995Z,1016.43
2023-10-07T12:33:35.111Z,1016.50
2023-10-07T12:34:22.895Z,1016.53
2023-10-07T12:35:21.934Z,1016.50
2023-10-07T12:36:21.872Z,1016.52
2023-10-07T12:37:21.878Z,1016.52
2023-10-07T12:38:21.876Z,1016.50
2023-10-07T12:39:21.847Z,1016.48
2023-10-07T12:40:21.861Z,1016.52
2023-10-07T12:41:21.855Z,1016.48
2023-10-07T12:42:21.843Z,1016.50
2023-10-07T12:43:21.802Z,1016.51
2023-10-07T12:44:21.823Z,1016.55
2023-10-07T12:45:21.782Z,1016.55
2023-10-07T12:46:21.779Z,1016.51
2023-10-07T12:47:21.783Z,1016.54
2023-10-07T12:48:21.747Z,1016.53
2023-10-07T12:49:21.736Z,1016.52
2023-10-07T12:50:21.858Z,1016.49
2023-10-07T12:51:21.711Z,1016.54
2023-10-07T12:52:21.719Z,1016.52
2023-10-07T12:53:21.735Z,1016.51
2023-10-07T12:54:21.681Z,1016.47
2023-10-07T12:55:21.665Z,1016.47
2023-10-07T12:56:21.699Z,1016.45
2023-10-07T12:57:21.664Z,1016.44
2023-10-07T12:58:21.647Z,1016.46
2023-10-07T12:59:21.651Z,1016.51
2023-10-07T13:00:21.624Z,1016.46
2023-10-07T13:01:21.781Z,1016.48
2023-10-07T13:02:21.686Z,1016.44
2023-10-07T13:03:21.706Z,1016.48
2023-10-07T13:04:21.614Z,1016.46
2023-10-07T13:05:21.602Z,1016.46
2023-10-07T13:06:21.542Z,1016.45
2023-10-07T13:07:21.548Z,1016.48
2023-10-07T13:08:21.613Z,1016.49
2023-10-07T13:09:21.591Z,1016.54
2023-10-07T13:10:21.506Z,1016.53
2023-10-07T13:11:21.531Z,1016.52
2023-10-07T13:12:21.493Z,1016.54
2023-10-07T13:13:21.471Z,1016.52
2023-10-07T13:14:21.518Z,1016.51
2023-10-07T13:15:21.447Z,1016.47
2023-10-07T13:16:21.433Z,1016.46
2023-10-07T13:17:22.069Z,1016.49
2023-10-07T13:18:21.438Z,1016.41
2023-10-07T13:19:21.421Z,1016.41
2023-10-07T13:20:21.516Z,1016.39
2023-10-07T13:21:21.406Z,1016.40
2023-10-07T13:22:21.393Z,1016.39
2023-10-07T13:23:21.406Z,1016.44
2023-10-07T13:24:21.345Z,1016.41
2023-10-07T13:25:21.410Z,1016.42
2023-10-07T13:26:21.386Z,1016.47
2023-10-07T13:27:21.328Z,1016.47
2023-10-07T13:28:21.338Z,1016.48
2023-10-07T13:29:21.362Z,1016.47
2023-10-07T13:30:21.306Z,1016.48
2023-10-07T13:31:21.312Z,1016.50
2023-10-07T13:32:21.332Z,1016.50
2023-10-07T13:33:21.318Z,1016.49
2023-10-07T13:34:21.242Z,1016.52
2023-10-07T13:35:21.300Z,1016.52
2023-10-07T13:36:21.231Z,1016.49
2023-10-07T13:37:21.206Z,1016.48
2023-10-07T13:38:21.317Z,1016.50
2023-10-07T13:39:21.242Z,1016.47
2023-10-07T13:40:21.181Z,1016.55
2023-10-07T13:41:21.204Z,1016.49
2023-10-07T13:42:21.148Z,1016.43
2023-10-07T13:43:21.244Z,1016.50
2023-10-07T13:44:21.254Z,1016.52
2023-10-07T13:45:21.161Z,1016.46
2023-10-07T13:46:21.194Z,1016.46
2023-10-07T13:47:21.306Z,1016.49
2023-10-07T13:48:21.212Z,1016.48
2023-10-07T13:49:21.071Z,1016.46
2023-10-07T13:50:21.104Z,1016.47
2023-10-07T13:51:21.053Z,1016.53
2023-10-07T13:52:21.037Z,1016.48
2023-10-07T13:53:21.101Z,1016.50
2023-10-07T13:54:21.014Z,1016.49
2023-10-07T13:55:21.021Z,1016.52
2023-10-07T13:56:21.088Z,1016.53
2023-10-07T13:57:21.156Z,1016.47
2023-10-07T13:58:20.984Z,1016.50
2023-10-07T13:59:21.072Z,1016.50
2023-10-07T14:00:21.016Z,1016.45
2023-10-07T14:01:21.010Z,1016.49
2023-10-07T14:02:21.507Z,1016.46
2023-10-07T14:03:21.245Z,1016.44
2023-10-07T14:04:20.959Z,1016.49
2023-10-07T14:05:20.952Z,1016.44
2023-10-07T14:06:20.893Z,1016.39
2023-10-07T14:07:20.892Z,1016.44
2023-10-07T14:08:21.043Z,1016.42
2023-10-07T14:09:20.923Z,1016.36
2023-10-07T14:10:20.940Z,1016.44
2023-10-07T14:11:20.927Z,1016.47
2023-10-07T14:12:20.820Z,1016.41
2023-10-07T14:13:20.841Z,1016.40
2023-10-07T14:14:20.916Z,1016.35
2023-10-07T14:15:20.827Z,1016.37
2023-10-07T14:16:20.870Z,1016.38
2023-10-07T14:17:20.888Z,1016.40
2023-10-07T14:18:20.848Z,1016.32
2023-10-07T14:19:20.741Z,1016.34
2023-10-07T14:20:20.771Z,1016.30
2023-10-07T14:21:20.717Z,1016.25
2023-10-07T14:22:20.708Z,1016.23
2023-10-07T14:23:20.815Z,1016.25
2023-10-07T14:24:20.684Z,1016.23
2023-10-07T14:25:20.683Z,1016.25
2023-10-07T14:26:20.800Z,1016.22
2023-10-07T14:27:20.650Z,1016.23
2023-10-07T14:28:20.659Z,1016.21
2023-10-07T14:29:20.695Z,1016.19
2023-10-07T14:30:20.688Z,1016.21
2023-10-07T14:31:20.754Z,1016.11
2023-10-07T14:32:20.637Z,1016.11
2023-10-07T14:33:20.651Z,1016.13
2023-10-07T14:34:20.606Z,1016.14
2023-10-07T14:35:20.611Z,1016.08
2023-10-07T14:36:20.548Z,1016.05
2023-10-07T14:37:20.544Z,1016.06
2023-10-07T14:38:20.564Z,1016.04
2023-10-07T14:39:26.654Z,1015.98
2023-10-07T14:40:21.551Z,1015.94
2023-10-07T14:41:20.605Z,1015.88
2023-10-07T14:42:20.490Z,1015.80
2023-10-07T14:43:20.515Z,1015.81
2023-10-07T14:44:20.479Z,1015.73
2023-10-07T14:45:20.482Z,1015.74
2023-10-07T14:46:20.459Z,1015.74
2023-10-07T14:47:20.442Z,1015.74
2023-10-07T14:48:20.534Z,1015.68
2023-10-07T14:49:20.416Z,1015.60
2023-10-07T14:50:20.482Z,1015.58
2023-10-07T14:51:20.394Z,1015.65
2023-10-07T14:52:20.376Z,1015.61
2023-10-07T14:53:20.400Z,1015.65
2023-10-07T14:54:20.356Z,1015.66
2023-10-07T14:55:20.343Z,1015.66
2023-10-07T14:56:20.340Z,1015.58
2023-10-07T14:57:20.344Z,1015.61
2023-10-07T14:58:20.331Z,1015.54
2023-10-07T14:59:20.352Z,1015.49
2023-10-07T15:00:20.284Z,1015.49
2023-10-07T15:01:20.344Z,1015.42
2023-10-07T15:02:20.373Z,1015.45
2023-10-07T15:03:20.428Z,1015.45
2023-10-07T15:04:20.328Z,1015.48
2023-10-07T15:05:20.257Z,1015.53
2023-10-07T15:06:20.262Z,1015.54
2023-10-07T15:07:20.203Z,1015.56
2023-10-07T15:08:20.356Z,1015.55
2023-10-07T15:09:20.241Z,1015.53
2023-10-07T15:10:20.173Z,1015.56
2023-10-07T15:11:20.192Z,1015.51
2023-10-07T15:12:20.155Z,1015.50
2023-10-07T15:13:20.163Z,1015.54
2023-10-07T15:14:20.206Z,1015.54
2023-10-07T15:15:20.117Z,1015.61
2023-10-07T15:16:20.141Z,1015.59
2023-10-07T15:17:20.192Z,1015.64
2023-10-07T15:18:20.133Z,1015.61
2023-10-07T15:19:20.070Z,1015.64
2023-10-07T15:20:20.110Z,1015.67
2023-10-07T15:21:20.049Z,1015.68
2023-10-07T15:22:20.063Z,1015.70
2023-10-07T15:23:20.075Z,1015.67
2023-10-07T15:24:20.016Z,1015.67
2023-10-07T15:25:20.004Z,1015.71
2023-10-07T15:26:20.141Z,1015.72
2023-10-07T15:27:19.987Z,1015.72
2023-10-07T15:28:19.989Z,1015.73
2023-10-07T15:29:20.026Z,1015.75
2023-10-07T15:30:19.949Z,1015.76
2023-10-07T15:31:19.953Z,1015.79
2023-10-07T15:32:19.942Z,1015.86
2023-10-07T15:33:19.979Z,1015.86
2023-10-07T15:34:19.906Z,1015.83
2023-10-07T15:35:19.926Z,1015.84
2023-10-07T15:36:19.886Z,1015.88
2023-10-07T15:37:19.870Z,1015.83
2023-10-07T15:38:19.947Z,1015.83
2023-10-07T15:39:19.861Z,1015.80
2023-10-07T15:40:19.851Z,1015.76
2023-10-07T15:41:19.907Z,1015.76
2023-10-07T15:42:19.818Z,1015.78
2023-10-07T15:43:19.822Z,1015.75
2023-10-07T15:44:19.835Z,1015.75
2023-10-07T15:45:19.781Z,1015.75
2023-10-07T15:46:19.836Z,1015.70
2023-10-07T15:47:19.841Z,1015.71
2023-10-07T15:48:19.771Z,1015.76
2023-10-07T15:49:19.768Z,1015.80
2023-10-07T15:50:19.796Z,1015.81
2023-10-07T15:51:19.717Z,1015.89
2023-10-07T15:52:19.705Z,1015.84
2023-10-07T15:53:19.745Z,1015.87
2023-10-07T15:54:19.743Z,1015.86
2023-10-07T15:55:19.670Z,1015.83
2023-10-07T15:56:19.901Z,1015.81
2023-10-07T15:57:19.665Z,1015.86
2023-10-07T15:58:19.637Z,1015.87
2023-10-07T15:59:19.721Z,1015.81
2023-10-07T16:00:19.704Z,1015.84
2023-10-07T16:01:19.697Z,1015.86
2023-10-07T16:02:19.704Z,1015.85
2023-10-07T16:03:19.709Z,1015.88
2023-10-07T16:04:19.713Z,1015.89
2023-10-07T16:05:19.683Z,1015.93
2023-10-07T16:06:19.553Z,1015.95
2023-10-07T16:07:19.541Z,1015.99
2023-10-07T16:08:19.567Z,1015.98
2023-10-07T16:09:19.536Z,1016.01
2023-10-07T16:10:19.534Z,1015.99
2023-10-07T16:11:19.584Z,1016.02
2023-10-07T16:12:19.479Z,1016.01
2023-10-07T16:13:19.468Z,1016.02
2023-10-07T16:14:19.524Z,1016.11
2023-10-07T16:15:19.454Z,1016.12
2023-10-07T16:16:19.460Z,1016.18
2023-10-07T16:17:19.461Z,1016.24
2023-10-07T16:18:19.462Z,1016.23
2023-10-07T16:19:19.482Z,1016.30
2023-10-07T16:20:19.609Z,1016.30
2023-10-07T16:21:19.603Z,1016.31
2023-10-07T16:22:19.371Z,1016.36
2023-10-07T16:23:19.468Z,1016.37
2023-10-07T16:24:19.377Z,1016.37
2023-10-07T16:25:19.335Z,1016.37
2023-10-07T16:26:19.376Z,1016.39
2023-10-07T16:27:19.317Z,1016.34
2023-10-07T16:28:19.308Z,1016.39
2023-10-07T16:29:19.352Z,1016.43
2023-10-07T16:30:19.297Z,1016.38
2023-10-07T16:31:19.311Z,1016.39
2023-10-07T16:32:19.284Z,1016.38
2023-10-07T16:33:19.258Z,1016.37
2023-10-07T16:34:19.251Z,1016.37
2023-10-07T16:35:19.249Z,1016.38
2023-10-07T16:36:19.219Z,1016.33
2023-10-07T16:37:19.198Z,1016.32
2023-10-07T16:38:19.258Z,1016.30
2023-10-07T16:39:19.214Z,1016.27
2023-10-07T16:40:19.164Z,1016.33
2023-10-07T16:41:19.182Z,1016.32
2023-10-07T16:42:19.190Z,1016.30
2023-10-07T16:43:19.189Z,1016.33
2023-10-07T16:44:19.232Z,1016.30
2023-10-07T16:45:19.223Z,1016.29
2023-10-07T16:46:19.138Z,1016.31
2023-10-07T16:47:19.134Z,1016.29
2023-10-07T16:48:19.094Z,1016.27
2023-10-07T16:49:19.090Z,1016.22
2023-10-07T16:50:19.062Z,1016.19
2023-10-07T16:51:19.042Z,1016.14
2023-10-07T16:52:19.033Z,1016.12
2023-10-07T16:53:19.078Z,1016.08
2023-10-07T16:54:19.045Z,1016.02
2023-10-07T16:55:19.017Z,1015.98
2023-10-07T16:56:19.021Z,1015.94
2023-10-07T16:57:19.698Z,1015.89
2023-10-07T16:58:18.991Z,1015.91
2023-10-07T16:59:18.998Z,1015.91
2023-10-07T17:00:18.954Z,1015.92
2023-10-07T17:01:18.990Z,1015.88
2023-10-07T17:02:18.954Z,1015.93
2023-10-07T17:03:18.978Z,1015.95
2023-10-07T17:04:19.038Z,1015.97
2023-10-07T17:05:18.904Z,1016.03
2023-10-07T17:06:18.900Z,1016.06
2023-10-07T17:07:18.860Z,1016.07
2023-10-07T17:08:18.865Z,1016.05
2023-10-07T17:09:18.859Z,1016.08
2023-10-07T17:10:18.829Z,1016.08
2023-10-07T17:11:19.088Z,1016.02
2023-10-07T17:12:18.803Z,1015.99
2023-10-07T17:13:18.797Z,1015.96
2023-10-07T17:14:18.843Z,1015.88
2023-10-07T17:15:18.768Z,1015.87
2023-10-07T17:16:18.843Z,1015.92
2023-10-07T17:17:18.910Z,1015.97
2023-10-07T17:18:18.756Z,1015.96
2023-10-07T17:19:18.732Z,1016.00
2023-10-07T17:20:18.741Z,1016.04
2023-10-07T17:21:18.695Z,1016.08
2023-10-07T17:22:18.698Z,1016.06
2023-10-07T17:23:18.716Z,1016.07
2023-10-07T17:24:18.676Z,1016.14
2023-10-07T17:25:18.649Z,1016.13
2023-10-07T17:26:18.680Z,1016.16
2023-10-07T17:27:18.646Z,1016.23
2023-10-07T17:28:18.685Z,1016.28
2023-10-07T17:29:18.650Z,1016.29
2023-10-07T17:30:18.626Z,1016.30
2023-10-07T17:31:18.638Z,1016.32
2023-10-07T17:32:18.602Z,1016.34
2023-10-07T17:33:18.571Z,1016.33
2023-10-07T17:34:18.577Z,1016.34
2023-10-07T17:35:18.601Z,1016.37
2023-10-07T17:36:18.530Z,1016.37
2023-10-07T17:37:18.521Z,1016.38
2023-10-07T17:38:18.573Z,1016.41
2023-10-07T17:39:18.509Z,1016.41
2023-10-07T17:40:18.484Z,1016.39
2023-10-07T17:41:18.577Z,1016.39
2023-10-07T17:42:18.476Z,1016.37
2023-10-07T17:43:18.451Z,1016.34
2023-10-07T17:44:18.473Z,1016.35
2023-10-07T17:45:18.424Z,1016.36
2023-10-07T17:46:18.458Z,1016.36
2023-10-07T17:47:18.435Z,1016.33
2023-10-07T17:48:18.476Z,1016.29
2023-10-07T17:49:18.405Z,1016.33
2023-10-07T17:50:18.441Z,1016.34
2023-10-07T17:51:18.353Z,1016.35
2023-10-07T17:52:18.350Z,1016.42
2023-10-07T17:53:18.436Z,1016.44
2023-10-07T17:54:18.339Z,1016.49
2023-10-07T17:55:18.312Z,1016.50
2023-10-07T17:56:18.319Z,1016.59
2023-10-07T17:57:18.288Z,1016.69
2023-10-07T17:58:18.277Z,1016.64
2023-10-07T17:59:18.355Z,1016.68
2023-10-07T18:00:18.262Z,1016.72
2023-10-07T18:01:18.257Z,1016.68
2023-10-07T18:02:18.372Z,1016.67
2023-10-07T18:03:18.411Z,1016.68
2023-10-07T18:04:18.224Z,1016.73
2023-10-07T18:05:18.258Z,1016.76
2023-10-07T18:06:18.185Z,1016.76
2023-10-07T18:07:18.172Z,1016.78
2023-10-07T18:08:18.191Z,1016.85
2023-10-07T18:09:18.157Z,1016.82
2023-10-07T18:10:18.151Z,1016.80
2023-10-07T18:11:18.178Z,1016.78
2023-10-07T18:12:18.123Z,1016.81
2023-10-07T18:13:18.100Z,1016.82
2023-10-07T18:14:18.123Z,1016.80
2023-10-07T18:15:18.090Z,1016.71
2023-10-07T18:16:18.089Z,1016.73
2023-10-07T18:17:18.085Z,1016.69
2023-10-07T18:18:18.105Z,1016.64
2023-10-07T18:19:18.350Z,1016.58
2023-10-07T18:20:18.196Z,1016.54
2023-10-07T18:21:18.015Z,1016.51
2023-10-07T18:22:18.000Z,1016.47
2023-10-07T18:23:18.034Z,1016.43